sensor_id;sensor_type;location;lat;lon;timestamp;pressure;altitude;pressure_sealevel;temperature;humidity
37694;BME280;23531;50.122;8.644;2023-02-19T00:01:15;100909.00;;;11.12;nan
37694;BME280;23531;50.122;8.644;2023-02-19T00:03:16;100906.31;;;11.19;nan
37694;BME280;23531;50.122;8.644;2023-02-19T00:05:19;100893.47;;;11.14;nan
37694;BME280;23531;50.122;8.644;2023-02-19T00:07:20;100898.66;;;11.22;nan
37694;BME280;23531;50.122;8.644;2023-02-19T00:09:22;100897.63;;;11.23;nan
37694;BME280;23531;50.122;8.644;2023-02-19T00:11:24;100899.84;;;11.00;nan
37694;BME280;23531;50.122;8.644;2023-02-19T00:13:25;100888.81;;;10.95;nan
37694;BME280;23531;50.122;8.644;2023-02-19T00:15:27;100879.75;;;11.03;nan
37694;BME280;23531;50.122;8.644;2023-02-19T00:17:29;100885.94;;;10.90;nan
37694;BME280;23531;50.122;8.644;2023-02-19T00:19:31;100883.41;;;10.82;nan
37694;BME280;23531;50.122;8.644;2023-02-19T00:21:33;100879.91;;;10.81;nan
37694;BME280;23531;50.122;8.644;2023-02-19T00:23:34;100872.28;;;10.91;nan
37694;BME280;23531;50.122;8.644;2023-02-19T00:25:36;100877.41;;;10.80;nan
37694;BME280;23531;50.122;8.644;2023-02-19T00:27:37;100881.78;;;10.87;nan
37694;BME280;23531;50.122;8.644;2023-02-19T00:29:39;100886.78;;;10.97;nan
37694;BME280;23531;50.122;8.644;2023-02-19T00:31:40;100876.19;;;10.89;nan
37694;BME280;23531;50.122;8.644;2023-02-19T00:33:41;100885.94;;;10.90;nan
37694;BME280;23531;50.122;8.644;2023-02-19T00:35:43;100876.44;;;10.94;nan
37694;BME280;23531;50.122;8.644;2023-02-19T00:37:45;100878.97;;;11.15;nan
37694;BME280;23531;50.122;8.644;2023-02-19T00:39:47;100886.22;;;11.21;nan
37694;BME280;23531;50.122;8.644;2023-02-19T00:41:49;100883.16;;;11.24;nan
37694;BME280;23531;50.122;8.644;2023-02-19T00:43:51;100877.28;;;11.01;nan
37694;BME280;23531;50.122;8.644;2023-02-19T00:45:52;100889.72;;;11.09;nan
37694;BME280;23531;50.122;8.644;2023-02-19T00:47:53;100883.91;;;11.05;nan
37694;BME280;23531;50.122;8.644;2023-02-19T00:49:55;100882.59;;;10.88;nan
37694;BME280;23531;50.122;8.644;2023-02-19T00:51:56;100862.75;;;10.89;nan
37694;BME280;23531;50.122;8.644;2023-02-19T00:53:59;100867.66;;;10.79;nan
37694;BME280;23531;50.122;8.644;2023-02-19T00:56:00;100873.25;;;10.84;nan
37694;BME280;23531;50.122;8.644;2023-02-19T00:58:01;100869.06;;;10.68;nan
37694;BME280;23531;50.122;8.644;2023-02-19T01:00:03;100862.09;;;10.80;nan
37694;BME280;23531;50.122;8.644;2023-02-19T01:02:07;100863.50;;;10.76;nan
37694;BME280;23531;50.122;8.644;2023-02-19T01:04:08;100875.75;;;10.79;nan
37694;BME280;23531;50.122;8.644;2023-02-19T01:06:10;100864.97;;;10.79;nan
37694;BME280;23531;50.122;8.644;2023-02-19T01:08:16;100856.72;;;10.80;nan
37694;BME280;23531;50.122;8.644;2023-02-19T01:10:18;100854.03;;;10.80;nan
37694;BME280;23531;50.122;8.644;2023-02-19T01:12:20;100851.38;;;10.94;nan
37694;BME280;23531;50.122;8.644;2023-02-19T01:14:23;100849.88;;;10.84;nan
37694;BME280;23531;50.122;8.644;2023-02-19T01:16:24;100847.00;;;10.86;nan
37694;BME280;23531;50.122;8.644;2023-02-19T01:18:26;100846.34;;;10.77;nan
37694;BME280;23531;50.122;8.644;2023-02-19T01:20:27;100842.38;;;10.73;nan
37694;BME280;23531;50.122;8.644;2023-02-19T01:22:29;100838.72;;;10.81;nan
37694;BME280;23531;50.122;8.644;2023-02-19T01:24:30;100856.47;;;10.69;nan
37694;BME280;23531;50.122;8.644;2023-02-19T01:26:33;100842.56;;;10.65;nan
37694;BME280;23531;50.122;8.644;2023-02-19T01:28:34;100832.00;;;10.64;nan
37694;BME280;23531;50.122;8.644;2023-02-19T01:30:35;100837.38;;;10.64;nan
37694;BME280;23531;50.122;8.644;2023-02-19T01:32:37;100840.72;;;10.66;nan
37694;BME280;23531;50.122;8.644;2023-02-19T01:34:38;100836.63;;;10.76;nan
37694;BME280;23531;50.122;8.644;2023-02-19T01:36:40;100837.06;;;10.80;nan
37694;BME280;23531;50.122;8.644;2023-02-19T01:38:41;100836.88;;;10.88;nan
37694;BME280;23531;50.122;8.644;2023-02-19T01:40:42;100837.09;;;10.93;nan
37694;BME280;23531;50.122;8.644;2023-02-19T01:42:45;100839.59;;;11.01;nan
37694;BME280;23531;50.122;8.644;2023-02-19T01:47:06;100832.56;;;11.00;nan
37694;BME280;23531;50.122;8.644;2023-02-19T01:49:10;100836.72;;;11.09;nan
37694;BME280;23531;50.122;8.644;2023-02-19T01:51:14;100826.53;;;10.98;nan
37694;BME280;23531;50.122;8.644;2023-02-19T01:53:18;100825.50;;;10.99;nan
37694;BME280;23531;50.122;8.644;2023-02-19T01:55:21;100821.78;;;11.00;nan
37694;BME280;23531;50.122;8.644;2023-02-19T01:57:22;100821.31;;;10.77;nan
37694;BME280;23531;50.122;8.644;2023-02-19T01:59:26;100834.81;;;10.90;nan
37694;BME280;23531;50.122;8.644;2023-02-19T02:01:28;100826.72;;;10.83;nan
37694;BME280;23531;50.122;8.644;2023-02-19T02:03:29;100824.69;;;10.99;nan
37694;BME280;23531;50.122;8.644;2023-02-19T02:05:36;100832.38;;;11.08;nan
37694;BME280;23531;50.122;8.644;2023-02-19T02:07:40;100827.81;;;11.02;nan
37694;BME280;23531;50.122;8.644;2023-02-19T02:09:59;100817.84;;;10.89;nan
37694;BME280;23531;50.122;8.644;2023-02-19T02:12:17;100812.69;;;10.95;nan
37694;BME280;23531;50.122;8.644;2023-02-19T02:14:20;100811.38;;;10.84;nan
37694;BME280;23531;50.122;8.644;2023-02-19T02:16:24;100802.72;;;10.82;nan
37694;BME280;23531;50.122;8.644;2023-02-19T02:18:33;100795.00;;;10.72;nan
37694;BME280;23531;50.122;8.644;2023-02-19T02:20:42;100806.81;;;10.71;nan
37694;BME280;23531;50.122;8.644;2023-02-19T02:22:51;100799.78;;;10.77;nan
37694;BME280;23531;50.122;8.644;2023-02-19T02:25:01;100801.00;;;10.74;nan
37694;BME280;23531;50.122;8.644;2023-02-19T02:27:12;100806.84;;;10.84;nan
37694;BME280;23531;50.122;8.644;2023-02-19T02:29:20;100805.25;;;11.03;nan
37694;BME280;23531;50.122;8.644;2023-02-19T02:31:27;100797.13;;;10.83;nan
37694;BME280;23531;50.122;8.644;2023-02-19T02:33:32;100793.13;;;10.66;nan
37694;BME280;23531;50.122;8.644;2023-02-19T02:35:37;100791.03;;;10.62;nan
37694;BME280;23531;50.122;8.644;2023-02-19T02:37:40;100793.56;;;10.70;nan
37694;BME280;23531;50.122;8.644;2023-02-19T02:39:43;100792.91;;;10.61;nan
37694;BME280;23531;50.122;8.644;2023-02-19T02:41:48;100793.97;;;10.67;nan
37694;BME280;23531;50.122;8.644;2023-02-19T02:44:10;100787.50;;;10.61;nan
37694;BME280;23531;50.122;8.644;2023-02-19T02:46:11;100775.31;;;10.59;nan
37694;BME280;23531;50.122;8.644;2023-02-19T02:48:18;100767.66;;;10.62;nan
37694;BME280;23531;50.122;8.644;2023-02-19T02:50:23;100784.47;;;10.71;nan
37694;BME280;23531;50.122;8.644;2023-02-19T02:52:25;100790.63;;;10.65;nan
37694;BME280;23531;50.122;8.644;2023-02-19T02:54:40;100787.56;;;10.74;nan
37694;BME280;23531;50.122;8.644;2023-02-19T02:56:59;100789.06;;;10.83;nan
37694;BME280;23531;50.122;8.644;2023-02-19T02:59:01;100790.06;;;10.76;nan
37694;BME280;23531;50.122;8.644;2023-02-19T03:01:05;100777.19;;;10.65;nan
37694;BME280;23531;50.122;8.644;2023-02-19T03:03:26;100773.88;;;10.63;nan
37694;BME280;23531;50.122;8.644;2023-02-19T03:05:28;100769.56;;;10.75;nan
37694;BME280;23531;50.122;8.644;2023-02-19T03:07:48;100768.81;;;10.94;nan
37694;BME280;23531;50.122;8.644;2023-02-19T03:09:58;100778.47;;;10.69;nan
37694;BME280;23531;50.122;8.644;2023-02-19T03:12:03;100772.94;;;10.90;nan
37694;BME280;23531;50.122;8.644;2023-02-19T03:14:24;100770.03;;;10.91;nan
37694;BME280;23531;50.122;8.644;2023-02-19T03:16:44;100771.28;;;10.89;nan
37694;BME280;23531;50.122;8.644;2023-02-19T03:19:07;100770.84;;;10.79;nan
37694;BME280;23531;50.122;8.644;2023-02-19T03:21:19;100768.34;;;10.71;nan
37694;BME280;23531;50.122;8.644;2023-02-19T03:23:22;100767.13;;;10.86;nan
37694;BME280;23531;50.122;8.644;2023-02-19T03:25:46;100765.06;;;10.95;nan
37694;BME280;23531;50.122;8.644;2023-02-19T03:28:06;100767.78;;;11.08;nan
37694;BME280;23531;50.122;8.644;2023-02-19T03:30:09;100770.84;;;10.79;nan
37694;BME280;23531;50.122;8.644;2023-02-19T03:32:12;100768.28;;;10.64;nan
37694;BME280;23531;50.122;8.644;2023-02-19T03:34:18;100773.28;;;10.61;nan
37694;BME280;23531;50.122;8.644;2023-02-19T03:36:21;100772.84;;;10.57;nan
37694;BME280;23531;50.122;8.644;2023-02-19T03:38:26;100770.78;;;10.66;nan
37694;BME280;23531;50.122;8.644;2023-02-19T03:40:29;100770.78;;;10.66;nan
37694;BME280;23531;50.122;8.644;2023-02-19T03:42:34;100769.94;;;10.59;nan
37694;BME280;23531;50.122;8.644;2023-02-19T03:44:37;100777.63;;;10.75;nan
37694;BME280;23531;50.122;8.644;2023-02-19T03:46:43;100779.50;;;10.68;nan
37694;BME280;23531;50.122;8.644;2023-02-19T03:48:47;100774.50;;;10.65;nan
37694;BME280;23531;50.122;8.644;2023-02-19T03:50:55;100781.94;;;10.63;nan
37694;BME280;23531;50.122;8.644;2023-02-19T03:53:02;100791.22;;;10.53;nan
37694;BME280;23531;50.122;8.644;2023-02-19T03:55:06;100799.31;;;10.60;nan
37694;BME280;23531;50.122;8.644;2023-02-19T03:57:10;100801.66;;;10.76;nan
37694;BME280;23531;50.122;8.644;2023-02-19T03:59:15;100802.28;;;10.85;nan
37694;BME280;23531;50.122;8.644;2023-02-19T04:01:20;100800.59;;;10.71;nan
37694;BME280;23531;50.122;8.644;2023-02-19T04:03:26;100803.03;;;10.59;nan
37694;BME280;23531;50.122;8.644;2023-02-19T04:05:29;100804.31;;;10.70;nan
37694;BME280;23531;50.122;8.644;2023-02-19T04:07:34;100791.72;;;10.70;nan
37694;BME280;23531;50.122;8.644;2023-02-19T04:09:39;100793.50;;;10.57;nan
37694;BME280;23531;50.122;8.644;2023-02-19T04:11:42;100796.59;;;10.47;nan
37694;BME280;23531;50.122;8.644;2023-02-19T04:13:45;100795.13;;;10.51;nan
37694;BME280;23531;50.122;8.644;2023-02-19T04:15:47;100802.88;;;10.67;nan
37694;BME280;23531;50.122;8.644;2023-02-19T04:17:52;100803.94;;;10.79;nan
37694;BME280;23531;50.122;8.644;2023-02-19T04:19:55;100799.59;;;10.72;nan
37694;BME280;23531;50.122;8.644;2023-02-19T04:21:58;100791.91;;;10.69;nan
37694;BME280;23531;50.122;8.644;2023-02-19T04:24:03;100798.53;;;10.73;nan
37694;BME280;23531;50.122;8.644;2023-02-19T04:26:06;100791.06;;;10.68;nan
37694;BME280;23531;50.122;8.644;2023-02-19T04:28:08;100791.03;;;10.62;nan
37694;BME280;23531;50.122;8.644;2023-02-19T04:30:10;100796.41;;;10.55;nan
37694;BME280;23531;50.122;8.644;2023-02-19T04:32:12;100793.94;;;10.60;nan
37694;BME280;23531;50.122;8.644;2023-02-19T04:34:13;100803.44;;;10.63;nan
37694;BME280;23531;50.122;8.644;2023-02-19T04:36:15;100801.78;;;10.62;nan
37694;BME280;23531;50.122;8.644;2023-02-19T04:38:16;100803.03;;;10.59;nan
37694;BME280;23531;50.122;8.644;2023-02-19T04:40:19;100803.88;;;10.66;nan
37694;BME280;23531;50.122;8.644;2023-02-19T04:42:20;100808.50;;;10.79;nan
37694;BME280;23531;50.122;8.644;2023-02-19T04:44:21;100810.78;;;10.82;nan
37694;BME280;23531;50.122;8.644;2023-02-19T04:46:22;100824.03;;;10.90;nan
37694;BME280;23531;50.122;8.644;2023-02-19T04:48:24;100825.06;;;10.89;nan
37694;BME280;23531;50.122;8.644;2023-02-19T04:50:25;100829.41;;;10.83;nan
37694;BME280;23531;50.122;8.644;2023-02-19T04:52:26;100830.59;;;10.74;nan
37694;BME280;23531;50.122;8.644;2023-02-19T04:54:28;100832.06;;;10.77;nan
37694;BME280;23531;50.122;8.644;2023-02-19T04:56:30;100833.72;;;10.78;nan
37694;BME280;23531;50.122;8.644;2023-02-19T04:58:32;100839.94;;;10.78;nan
37694;BME280;23531;50.122;8.644;2023-02-19T05:00:33;100839.78;;;10.93;nan
37694;BME280;23531;50.122;8.644;2023-02-19T05:02:34;100846.84;;;10.94;nan
37694;BME280;23531;50.122;8.644;2023-02-19T05:04:36;100841.84;;;10.91;nan
37694;BME280;23531;50.122;8.644;2023-02-19T05:06:37;100850.75;;;10.98;nan
37694;BME280;23531;50.122;8.644;2023-02-19T05:08:38;100851.19;;;11.08;nan
37694;BME280;23531;50.122;8.644;2023-02-19T05:10:39;100847.47;;;11.03;nan
37694;BME280;23531;50.122;8.644;2023-02-19T05:12:42;100845.56;;;10.97;nan
37694;BME280;23531;50.122;8.644;2023-02-19T05:14:43;100852.44;;;10.99;nan
37694;BME280;23531;50.122;8.644;2023-02-19T05:16:45;100847.03;;;10.99;nan
37694;BME280;23531;50.122;8.644;2023-02-19T05:18:46;100851.09;;;10.75;nan
37694;BME280;23531;50.122;8.644;2023-02-19T05:20:48;100850.94;;;10.83;nan
37694;BME280;23531;50.122;8.644;2023-02-19T05:22:49;100856.28;;;10.77;nan
37694;BME280;23531;50.122;8.644;2023-02-19T05:24:50;100864.78;;;10.87;nan
37694;BME280;23531;50.122;8.644;2023-02-19T05:26:52;100861.91;;;10.88;nan
37694;BME280;23531;50.122;8.644;2023-02-19T05:28:54;100856.66;;;10.67;nan
37694;BME280;23531;50.122;8.644;2023-02-19T05:30:56;100858.13;;;10.76;nan
37694;BME280;23531;50.122;8.644;2023-02-19T05:32:57;100857.69;;;10.66;nan
37694;BME280;23531;50.122;8.644;2023-02-19T05:34:58;100858.38;;;10.88;nan
37694;BME280;23531;50.122;8.644;2023-02-19T05:37:01;100862.28;;;10.79;nan
37694;BME280;23531;50.122;8.644;2023-02-19T05:39:02;100852.13;;;10.74;nan
37694;BME280;23531;50.122;8.644;2023-02-19T05:41:06;100862.47;;;10.71;nan
37694;BME280;23531;50.122;8.644;2023-02-19T05:43:07;100870.94;;;10.74;nan
37694;BME280;23531;50.122;8.644;2023-02-19T05:45:10;100865.81;;;10.79;nan
37694;BME280;23531;50.122;8.644;2023-02-19T05:47:11;100871.81;;;10.81;nan
37694;BME280;23531;50.122;8.644;2023-02-19T05:49:12;100880.53;;;10.90;nan
37694;BME280;23531;50.122;8.644;2023-02-19T05:51:15;100876.56;;;10.79;nan
37694;BME280;23531;50.122;8.644;2023-02-19T05:53:16;100888.72;;;10.69;nan
37694;BME280;23531;50.122;8.644;2023-02-19T05:55:17;100889.38;;;10.71;nan
37694;BME280;23531;50.122;8.644;2023-02-19T05:57:19;100894.13;;;10.75;nan
37694;BME280;23531;50.122;8.644;2023-02-19T05:59:21;100891.91;;;10.85;nan
37694;BME280;23531;50.122;8.644;2023-02-19T06:01:24;100890.22;;;10.84;nan
37694;BME280;23531;50.122;8.644;2023-02-19T06:03:26;100885.03;;;10.76;nan
37694;BME280;23531;50.122;8.644;2023-02-19T06:05:27;100902.00;;;10.77;nan
37694;BME280;23531;50.122;8.644;2023-02-19T06:07:29;100908.22;;;10.84;nan
37694;BME280;23531;50.122;8.644;2023-02-19T06:09:30;100910.53;;;10.87;nan
37694;BME280;23531;50.122;8.644;2023-02-19T06:11:32;100913.59;;;10.77;nan
37694;BME280;23531;50.122;8.644;2023-02-19T06:13:33;100925.44;;;10.83;nan
37694;BME280;23531;50.122;8.644;2023-02-19T06:15:34;100926.59;;;10.74;nan
37694;BME280;23531;50.122;8.644;2023-02-19T06:17:37;100921.47;;;10.85;nan
37694;BME280;23531;50.122;8.644;2023-02-19T06:19:38;100915.44;;;10.77;nan
37694;BME280;23531;50.122;8.644;2023-02-19T06:21:40;100910.31;;;10.82;nan
37694;BME280;23531;50.122;8.644;2023-02-19T06:23:41;100913.59;;;10.77;nan
37694;BME280;23531;50.122;8.644;2023-02-19T06:25:43;100921.41;;;10.72;nan
37694;BME280;23531;50.122;8.644;2023-02-19T06:27:44;100930.59;;;10.84;nan
37694;BME280;23531;50.122;8.644;2023-02-19T06:29:45;100937.63;;;10.85;nan
37694;BME280;23531;50.122;8.644;2023-02-19T06:31:46;100946.97;;;10.89;nan
37694;BME280;23531;50.122;8.644;2023-02-19T06:33:49;100941.16;;;10.86;nan
37694;BME280;23531;50.122;8.644;2023-02-19T06:35:50;100944.66;;;10.86;nan
37694;BME280;23531;50.122;8.644;2023-02-19T06:37:52;100945.97;;;10.97;nan
37694;BME280;23531;50.122;8.644;2023-02-19T06:39:53;100945.13;;;10.90;nan
37694;BME280;23531;50.122;8.644;2023-02-19T06:41:54;100947.22;;;10.95;nan
37694;BME280;23531;50.122;8.644;2023-02-19T06:43:56;100944.53;;;11.01;nan
37694;BME280;23531;50.122;8.644;2023-02-19T06:45:57;100955.28;;;10.95;nan
37694;BME280;23531;50.122;8.644;2023-02-19T06:47:59;100949.66;;;10.89;nan
37694;BME280;23531;50.122;8.644;2023-02-19T06:50:02;100953.56;;;10.87;nan
37694;BME280;23531;50.122;8.644;2023-02-19T06:52:03;100950.09;;;10.93;nan
37694;BME280;23531;50.122;8.644;2023-02-19T06:54:04;100947.25;;;11.08;nan
37694;BME280;23531;50.122;8.644;2023-02-19T06:56:06;100951.97;;;10.99;nan
37694;BME280;23531;50.122;8.644;2023-02-19T06:58:08;100956.53;;;10.99;nan
37694;BME280;23531;50.122;8.644;2023-02-19T07:00:09;100950.50;;;10.90;nan
37694;BME280;23531;50.122;8.644;2023-02-19T07:02:11;100956.91;;;10.89;nan
37694;BME280;23531;50.122;8.644;2023-02-19T07:04:13;100963.31;;;10.88;nan
37694;BME280;23531;50.122;8.644;2023-02-19T07:06:16;100969.53;;;10.95;nan
37694;BME280;23531;50.122;8.644;2023-02-19T07:08:17;100963.38;;;11.01;nan
37694;BME280;23531;50.122;8.644;2023-02-19T07:10:18;100972.22;;;10.95;nan
37694;BME280;23531;50.122;8.644;2023-02-19T07:12:19;100964.41;;;11.00;nan
37694;BME280;23531;50.122;8.644;2023-02-19T07:14:21;100970.44;;;11.02;nan
37694;BME280;23531;50.122;8.644;2023-02-19T07:16:22;100983.34;;;10.85;nan
37694;BME280;23531;50.122;8.644;2023-02-19T07:18:23;100985.22;;;10.85;nan
37694;BME280;23531;50.122;8.644;2023-02-19T07:20:25;100983.22;;;10.94;nan
37694;BME280;23531;50.122;8.644;2023-02-19T07:22:27;100988.00;;;10.98;nan
37694;BME280;23531;50.122;8.644;2023-02-19T07:24:29;100988.53;;;10.87;nan
37694;BME280;23531;50.122;8.644;2023-02-19T07:26:30;101000.19;;;10.94;nan
37694;BME280;23531;50.122;8.644;2023-02-19T07:28:31;100999.75;;;10.90;nan
37694;BME280;23531;50.122;8.644;2023-02-19T07:30:32;100996.69;;;10.94;nan
37694;BME280;23531;50.122;8.644;2023-02-19T07:32:34;101003.63;;;10.81;nan
37694;BME280;23531;50.122;8.644;2023-02-19T07:34:35;101001.34;;;10.78;nan
37694;BME280;23531;50.122;8.644;2023-02-19T07:36:36;101003.81;;;10.80;nan
37694;BME280;23531;50.122;8.644;2023-02-19T07:38:39;101013.56;;;10.81;nan
37694;BME280;23531;50.122;8.644;2023-02-19T07:40:40;101004.41;;;10.75;nan
37694;BME280;23531;50.122;8.644;2023-02-19T07:42:42;101009.50;;;10.64;nan
37694;BME280;23531;50.122;8.644;2023-02-19T07:44:43;101021.97;;;10.71;nan
37694;BME280;23531;50.122;8.644;2023-02-19T07:46:44;101023.59;;;10.66;nan
37694;BME280;23531;50.122;8.644;2023-02-19T07:48:45;101020.69;;;10.67;nan
37694;BME280;23531;50.122;8.644;2023-02-19T07:50:49;101024.53;;;10.86;nan
37694;BME280;23531;50.122;8.644;2023-02-19T07:52:50;101025.84;;;10.97;nan
37694;BME280;23531;50.122;8.644;2023-02-19T07:54:53;101034.47;;;10.85;nan
37694;BME280;23531;50.122;8.644;2023-02-19T07:56:54;101035.47;;;10.78;nan
37694;BME280;23531;50.122;8.644;2023-02-19T07:58:55;101032.28;;;10.68;nan
37694;BME280;23531;50.122;8.644;2023-02-19T08:01:04;101034.84;;;10.76;nan
37694;BME280;23531;50.122;8.644;2023-02-19T08:03:06;101046.63;;;10.75;nan
37694;BME280;23531;50.122;8.644;2023-02-19T08:05:06;101049.31;;;10.75;nan
37694;BME280;23531;50.122;8.644;2023-02-19T08:07:09;101041.66;;;10.72;nan
37694;BME280;23531;50.122;8.644;2023-02-19T08:09:10;101050.63;;;10.85;nan
37694;BME280;23531;50.122;8.644;2023-02-19T08:11:13;101048.47;;;11.02;nan
37694;BME280;23531;50.122;8.644;2023-02-19T08:13:32;101052.81;;;11.03;nan
37694;BME280;23531;50.122;8.644;2023-02-19T08:15:33;101057.56;;;11.01;nan
37694;BME280;23531;50.122;8.644;2023-02-19T08:17:34;101065.63;;;11.01;nan
37694;BME280;23531;50.122;8.644;2023-02-19T08:19:36;101071.41;;;10.98;nan
37694;BME280;23531;50.122;8.644;2023-02-19T08:21:37;101072.31;;;11.05;nan
37694;BME280;23531;50.122;8.644;2023-02-19T08:23:38;101072.72;;;11.09;nan
37694;BME280;23531;50.122;8.644;2023-02-19T08:25:40;101090.72;;;11.08;nan
37694;BME280;23531;50.122;8.644;2023-02-19T08:27:42;101091.97;;;11.06;nan
37694;BME280;23531;50.122;8.644;2023-02-19T08:29:44;101086.03;;;10.89;nan
37694;BME280;23531;50.122;8.644;2023-02-19T08:31:46;101100.72;;;10.86;nan
37694;BME280;23531;50.122;8.644;2023-02-19T08:33:47;101097.81;;;10.88;nan
37694;BME280;23531;50.122;8.644;2023-02-19T08:35:49;101104.84;;;10.82;nan
37694;BME280;23531;50.122;8.644;2023-02-19T08:37:50;101100.28;;;10.83;nan
37694;BME280;23531;50.122;8.644;2023-02-19T08:39:54;101105.25;;;10.86;nan
37694;BME280;23531;50.122;8.644;2023-02-19T08:41:56;101106.19;;;11.00;nan
37694;BME280;23531;50.122;8.644;2023-02-19T08:43:58;101105.91;;;11.16;nan
37694;BME280;23531;50.122;8.644;2023-02-19T08:45:59;101106.75;;;11.16;nan
37694;BME280;23531;50.122;8.644;2023-02-19T08:48:01;101117.50;;;11.16;nan
37694;BME280;23531;50.122;8.644;2023-02-19T08:50:02;101109.38;;;11.10;nan
37694;BME280;23531;50.122;8.644;2023-02-19T08:52:04;101111.50;;;11.21;nan
37694;BME280;23531;50.122;8.644;2023-02-19T08:54:05;101109.28;;;11.24;nan
37694;BME280;23531;50.122;8.644;2023-02-19T08:56:07;101109.50;;;11.29;nan
37694;BME280;23531;50.122;8.644;2023-02-19T08:58:09;101107.25;;;11.33;nan
37694;BME280;23531;50.122;8.644;2023-02-19T09:00:12;101109.75;;;11.41;nan
37694;BME280;23531;50.122;8.644;2023-02-19T09:02:14;101113.53;;;11.47;nan
37694;BME280;23531;50.122;8.644;2023-02-19T09:04:15;101129.09;;;11.51;nan
37694;BME280;23531;50.122;8.644;2023-02-19T09:06:17;101126.38;;;11.45;nan
37694;BME280;23531;50.122;8.644;2023-02-19T09:08:19;101122.25;;;11.49;nan
37694;BME280;23531;50.122;8.644;2023-02-19T09:10:20;101132.00;;;11.50;nan
37694;BME280;23531;50.122;8.644;2023-02-19T09:12:21;101125.59;;;11.51;nan
37694;BME280;23531;50.122;8.644;2023-02-19T09:14:22;101122.25;;;11.49;nan
37694;BME280;23531;50.122;8.644;2023-02-19T09:16:26;101128.28;;;11.51;nan
37694;BME280;23531;50.122;8.644;2023-02-19T09:18:27;101138.50;;;11.62;nan
37694;BME280;23531;50.122;8.644;2023-02-19T09:20:28;101132.66;;;11.58;nan
37694;BME280;23531;50.122;8.644;2023-02-19T09:22:30;101148.22;;;11.63;nan
37694;BME280;23531;50.122;8.644;2023-02-19T09:24:31;101149.03;;;11.63;nan
37694;BME280;23531;50.122;8.644;2023-02-19T09:26:32;101149.28;;;11.62;nan
37694;BME280;23531;50.122;8.644;2023-02-19T09:28:34;101161.28;;;11.66;nan
37694;BME280;23531;50.122;8.644;2023-02-19T09:30:36;101148.47;;;11.68;nan
37694;BME280;23531;50.122;8.644;2023-02-19T09:32:38;101133.25;;;11.54;nan
37694;BME280;23531;50.122;8.644;2023-02-19T09:34:40;101140.09;;;11.56;nan
37694;BME280;23531;50.122;8.644;2023-02-19T09:36:41;101138.69;;;11.60;nan
37694;BME280;23531;50.122;8.644;2023-02-19T09:38:43;101138.97;;;11.72;nan
37694;BME280;23531;50.122;8.644;2023-02-19T09:40:44;101144.94;;;11.68;nan
37694;BME280;23531;50.122;8.644;2023-02-19T09:42:45;101153.00;;;11.61;nan
37694;BME280;23531;50.122;8.644;2023-02-19T09:44:49;101149.47;;;11.60;nan
37694;BME280;23531;50.122;8.644;2023-02-19T09:46:50;101146.63;;;11.41;nan
37694;BME280;23531;50.122;8.644;2023-02-19T09:48:54;101145.31;;;11.30;nan
37694;BME280;23531;50.122;8.644;2023-02-19T09:50:58;101151.16;;;11.34;nan
37694;BME280;23531;50.122;8.644;2023-02-19T09:53:01;101147.88;;;11.38;nan
37694;BME280;23531;50.122;8.644;2023-02-19T09:55:04;101157.66;;;11.46;nan
37694;BME280;23531;50.122;8.644;2023-02-19T09:57:13;101162.00;;;11.47;nan
37694;BME280;23531;50.122;8.644;2023-02-19T09:59:17;101166.22;;;11.56;nan
37694;BME280;23531;50.122;8.644;2023-02-19T10:01:19;101175.38;;;11.61;nan
37694;BME280;23531;50.122;8.644;2023-02-19T10:03:22;101177.00;;;11.62;nan
37694;BME280;23531;50.122;8.644;2023-02-19T10:05:31;101186.28;;;11.53;nan
37694;BME280;23531;50.122;8.644;2023-02-19T10:07:34;101190.22;;;11.51;nan
37694;BME280;23531;50.122;8.644;2023-02-19T10:09:37;101189.53;;;11.42;nan
37694;BME280;23531;50.122;8.644;2023-02-19T10:11:38;101197.72;;;11.27;nan
37694;BME280;23531;50.122;8.644;2023-02-19T10:13:40;101209.09;;;11.29;nan
37694;BME280;23531;50.122;8.644;2023-02-19T10:15:43;101212.88;;;11.35;nan
37694;BME280;23531;50.122;8.644;2023-02-19T10:17:45;101210.84;;;11.37;nan
37694;BME280;23531;50.122;8.644;2023-02-19T10:19:46;101209.16;;;11.36;nan
37694;BME280;23531;50.122;8.644;2023-02-19T10:21:49;101216.41;;;11.36;nan
37694;BME280;23531;50.122;8.644;2023-02-19T10:23:51;101218.81;;;11.24;nan
37694;BME280;23531;50.122;8.644;2023-02-19T10:25:54;101229.75;;;11.22;nan
37694;BME280;23531;50.122;8.644;2023-02-19T10:27:56;101228.09;;;11.21;nan
37694;BME280;23531;50.122;8.644;2023-02-19T10:29:58;101225.19;;;11.16;nan
37694;BME280;23531;50.122;8.644;2023-02-19T10:32:16;101225.94;;;11.10;nan
37694;BME280;23531;50.122;8.644;2023-02-19T10:34:20;101221.56;;;11.09;nan
37694;BME280;23531;50.122;8.644;2023-02-19T10:36:25;101217.72;;;11.18;nan
37694;BME280;23531;50.122;8.644;2023-02-19T10:38:30;101214.06;;;11.26;nan
37694;BME280;23531;50.122;8.644;2023-02-19T10:40:32;101227.75;;;11.31;nan
37694;BME280;23531;50.122;8.644;2023-02-19T10:42:34;101231.94;;;11.34;nan
37694;BME280;23531;50.122;8.644;2023-02-19T10:44:37;101242.88;;;11.32;nan
37694;BME280;23531;50.122;8.644;2023-02-19T10:46:43;101248.53;;;11.37;nan
37694;BME280;23531;50.122;8.644;2023-02-19T10:48:46;101251.91;;;11.46;nan
37694;BME280;23531;50.122;8.644;2023-02-19T10:50:50;101252.09;;;11.44;nan
37694;BME280;23531;50.122;8.644;2023-02-19T10:52:57;101254.59;;;11.46;nan
37694;BME280;23531;50.122;8.644;2023-02-19T10:55:14;101251.47;;;11.42;nan
37694;BME280;23531;50.122;8.644;2023-02-19T10:57:26;101261.00;;;11.45;nan
37694;BME280;23531;50.122;8.644;2023-02-19T10:59:31;101268.03;;;11.39;nan
37694;BME280;23531;50.122;8.644;2023-02-19T11:01:33;101270.91;;;11.38;nan
37694;BME280;23531;50.122;8.644;2023-02-19T11:03:34;101274.84;;;11.42;nan